sensor_id;sensor_type;location;lat;lon;timestamp;P1;durP1;ratioP1;P2;durP2;ratioP2
71104;SDS011;58760;48.716;8.962;2023-11-21T00:01:58;5.00;;;1.88;;
71104;SDS011;58760;48.716;8.962;2023-11-21T00:04:24;4.63;;;1.73;;
71104;SDS011;58760;48.716;8.962;2023-11-21T00:06:50;4.47;;;1.48;;
71104;SDS011;58760;48.716;8.962;2023-11-21T00:09:16;4.35;;;1.60;;
71104;SDS011;58760;48.716;8.962;2023-11-21T00:11:42;9.73;;;2.33;;
71104;SDS011;58760;48.716;8.962;2023-11-21T00:14:09;12.60;;;2.22;;
71104;SDS011;58760;48.716;8.962;2023-11-21T00:16:35;7.82;;;1.70;;
71104;SDS011;58760;48.716;8.962;2023-11-21T00:19:00;10.02;;;1.83;;
71104;SDS011;58760;48.716;8.962;2023-11-21T00:21:25;11.48;;;1.67;;
71104;SDS011;58760;48.716;8.962;2023-11-21T00:23:51;7.47;;;1.77;;
71104;SDS011;58760;48.716;8.962;2023-11-21T00:26:16;5.97;;;2.10;;
71104;SDS011;58760;48.716;8.962;2023-11-21T00:28:42;6.15;;;1.50;;
71104;SDS011;58760;48.716;8.962;2023-11-21T00:31:07;5.85;;;1.52;;
71104;SDS011;58760;48.716;8.962;2023-11-21T00:33:32;4.93;;;1.48;;
71104;SDS011;58760;48.716;8.962;2023-11-21T00:35:58;6.32;;;1.58;;
71104;SDS011;58760;48.716;8.962;2023-11-21T00:38:24;8.88;;;1.40;;
71104;SDS011;58760;48.716;8.962;2023-11-21T00:40:49;6.30;;;1.85;;
71104;SDS011;58760;48.716;8.962;2023-11-21T00:43:14;6.07;;;1.75;;
71104;SDS011;58760;48.716;8.962;2023-11-21T00:45:40;7.72;;;1.70;;
71104;SDS011;58760;48.716;8.962;2023-11-21T00:48:05;5.68;;;1.20;;
71104;SDS011;58760;48.716;8.962;2023-11-21T00:50:31;7.50;;;1.60;;
71104;SDS011;58760;48.716;8.962;2023-11-21T00:52:56;8.95;;;1.67;;
71104;SDS011;58760;48.716;8.962;2023-11-21T00:55:22;9.38;;;1.95;;
71104;SDS011;58760;48.716;8.962;2023-11-21T00:57:47;9.45;;;1.58;;
71104;SDS011;58760;48.716;8.962;2023-11-21T01:00:13;6.63;;;1.30;;
71104;SDS011;58760;48.716;8.962;2023-11-21T01:02:42;6.63;;;1.80;;
71104;SDS011;58760;48.716;8.962;2023-11-21T01:05:09;7.38;;;1.55;;
71104;SDS011;58760;48.716;8.962;2023-11-21T01:07:35;3.95;;;1.13;;
71104;SDS011;58760;48.716;8.962;2023-11-21T01:10:01;5.13;;;1.10;;
71104;SDS011;58760;48.716;8.962;2023-11-21T01:12:28;8.05;;;1.83;;
71104;SDS011;58760;48.716;8.962;2023-11-21T01:14:53;3.00;;;1.10;;
71104;SDS011;58760;48.716;8.962;2023-11-21T01:17:19;4.85;;;1.05;;
71104;SDS011;58760;48.716;8.962;2023-11-21T01:19:44;4.65;;;1.20;;
71104;SDS011;58760;48.716;8.962;2023-11-21T01:22:09;4.88;;;1.20;;
71104;SDS011;58760;48.716;8.962;2023-11-21T01:24:36;6.10;;;1.33;;
71104;SDS011;58760;48.716;8.962;2023-11-21T01:27:02;3.90;;;0.95;;
71104;SDS011;58760;48.716;8.962;2023-11-21T01:29:29;3.83;;;1.00;;
71104;SDS011;58760;48.716;8.962;2023-11-21T01:31:55;5.90;;;1.25;;
71104;SDS011;58760;48.716;8.962;2023-11-21T01:34:22;3.58;;;1.60;;
71104;SDS011;58760;48.716;8.962;2023-11-21T01:36:48;6.22;;;1.10;;
71104;SDS011;58760;48.716;8.962;2023-11-21T01:39:14;6.40;;;1.63;;
71104;SDS011;58760;48.716;8.962;2023-11-21T01:41:43;5.45;;;1.08;;
71104;SDS011;58760;48.716;8.962;2023-11-21T01:44:09;7.78;;;1.25;;
71104;SDS011;58760;48.716;8.962;2023-11-21T01:46:35;4.95;;;1.08;;
71104;SDS011;58760;48.716;8.962;2023-11-21T01:49:00;5.55;;;1.15;;
71104;SDS011;58760;48.716;8.962;2023-11-21T01:51:26;2.97;;;1.00;;
71104;SDS011;58760;48.716;8.962;2023-11-21T01:53:51;4.90;;;1.10;;
71104;SDS011;58760;48.716;8.962;2023-11-21T01:56:17;5.82;;;1.30;;
71104;SDS011;58760;48.716;8.962;2023-11-21T01:58:43;4.93;;;1.23;;
71104;SDS011;58760;48.716;8.962;2023-11-21T02:01:09;4.82;;;1.30;;
71104;SDS011;58760;48.716;8.962;2023-11-21T02:03:35;5.03;;;1.10;;
71104;SDS011;58760;48.716;8.962;2023-11-21T02:06:01;5.15;;;1.17;;
71104;SDS011;58760;48.716;8.962;2023-11-21T02:08:26;5.45;;;1.30;;
71104;SDS011;58760;48.716;8.962;2023-11-21T02:10:52;4.03;;;1.20;;
71104;SDS011;58760;48.716;8.962;2023-11-21T02:13:17;4.13;;;1.10;;
71104;SDS011;58760;48.716;8.962;2023-11-21T02:15:43;5.97;;;1.13;;
71104;SDS011;58760;48.716;8.962;2023-11-21T02:18:08;9.13;;;2.05;;
71104;SDS011;58760;48.716;8.962;2023-11-21T02:20:36;4.68;;;0.93;;
71104;SDS011;58760;48.716;8.962;2023-11-21T02:23:04;4.63;;;1.13;;
71104;SDS011;58760;48.716;8.962;2023-11-21T02:25:30;4.05;;;1.00;;
71104;SDS011;58760;48.716;8.962;2023-11-21T02:27:59;3.92;;;1.20;;
71104;SDS011;58760;48.716;8.962;2023-11-21T02:30:26;5.10;;;1.08;;
71104;SDS011;58760;48.716;8.962;2023-11-21T02:32:53;4.10;;;1.00;;
71104;SDS011;58760;48.716;8.962;2023-11-21T02:35:18;5.28;;;1.20;;
71104;SDS011;58760;48.716;8.962;2023-11-21T02:37:46;4.78;;;1.00;;
71104;SDS011;58760;48.716;8.962;2023-11-21T02:40:12;3.83;;;0.90;;
71104;SDS011;58760;48.716;8.962;2023-11-21T02:42:38;4.90;;;1.10;;
71104;SDS011;58760;48.716;8.962;2023-11-21T02:47:30;2.55;;;1.05;;
71104;SDS011;58760;48.716;8.962;2023-11-21T02:49:56;5.38;;;1.15;;
71104;SDS011;58760;48.716;8.962;2023-11-21T02:52:21;3.55;;;0.88;;
71104;SDS011;58760;48.716;8.962;2023-11-21T02:54:46;3.13;;;0.90;;
71104;SDS011;58760;48.716;8.962;2023-11-21T02:57:12;3.42;;;0.85;;
71104;SDS011;58760;48.716;8.962;2023-11-21T02:59:38;3.22;;;0.70;;
71104;SDS011;58760;48.716;8.962;2023-11-21T03:02:04;1.75;;;0.73;;
71104;SDS011;58760;48.716;8.962;2023-11-21T03:04:29;4.45;;;1.00;;
71104;SDS011;58760;48.716;8.962;2023-11-21T03:06:57;4.13;;;1.00;;
71104;SDS011;58760;48.716;8.962;2023-11-21T03:09:23;4.70;;;0.80;;
71104;SDS011;58760;48.716;8.962;2023-11-21T03:11:48;4.97;;;1.00;;
71104;SDS011;58760;48.716;8.962;2023-11-21T03:14:14;5.07;;;0.75;;
71104;SDS011;58760;48.716;8.962;2023-11-21T03:16:39;3.13;;;1.00;;
71104;SDS011;58760;48.716;8.962;2023-11-21T03:19:06;4.75;;;0.93;;
71104;SDS011;58760;48.716;8.962;2023-11-21T03:21:33;2.08;;;0.63;;
71104;SDS011;58760;48.716;8.962;2023-11-21T03:23:58;2.10;;;0.70;;
71104;SDS011;58760;48.716;8.962;2023-11-21T03:26:25;4.13;;;1.00;;
71104;SDS011;58760;48.716;8.962;2023-11-21T03:28:50;3.90;;;0.77;;
71104;SDS011;58760;48.716;8.962;2023-11-21T03:31:18;3.33;;;0.80;;
71104;SDS011;58760;48.716;8.962;2023-11-21T03:33:44;2.80;;;0.90;;
71104;SDS011;58760;48.716;8.962;2023-11-21T03:36:10;4.50;;;0.90;;
71104;SDS011;58760;48.716;8.962;2023-11-21T03:38:36;4.90;;;1.00;;
71104;SDS011;58760;48.716;8.962;2023-11-21T03:41:02;3.85;;;0.68;;
71104;SDS011;58760;48.716;8.962;2023-11-21T03:43:28;4.18;;;0.75;;
71104;SDS011;58760;48.716;8.962;2023-11-21T03:45:54;3.10;;;0.68;;
71104;SDS011;58760;48.716;8.962;2023-11-21T03:48:19;2.45;;;0.77;;
71104;SDS011;58760;48.716;8.962;2023-11-21T03:50:45;1.38;;;0.80;;
71104;SDS011;58760;48.716;8.962;2023-11-21T03:53:12;3.55;;;0.90;;
71104;SDS011;58760;48.716;8.962;2023-11-21T03:55:37;2.30;;;0.70;;
71104;SDS011;58760;48.716;8.962;2023-11-21T03:58:03;2.50;;;0.80;;
71104;SDS011;58760;48.716;8.962;2023-11-21T04:00:28;2.10;;;0.68;;
71104;SDS011;58760;48.716;8.962;2023-11-21T04:02:54;4.32;;;0.73;;
71104;SDS011;58760;48.716;8.962;2023-11-21T04:05:20;4.88;;;0.70;;
71104;SDS011;58760;48.716;8.962;2023-11-21T04:07:49;0.95;;;0.52;;
71104;SDS011;58760;48.716;8.962;2023-11-21T04:10:16;3.55;;;0.95;;
71104;SDS011;58760;48.716;8.962;2023-11-21T04:12:41;3.88;;;0.93;;
71104;SDS011;58760;48.716;8.962;2023-11-21T04:15:07;4.32;;;1.02;;
71104;SDS011;58760;48.716;8.962;2023-11-21T04:17:36;1.58;;;0.60;;
71104;SDS011;58760;48.716;8.962;2023-11-21T04:20:02;4.47;;;0.75;;
71104;SDS011;58760;48.716;8.962;2023-11-21T04:22:33;4.97;;;0.70;;
71104;SDS011;58760;48.716;8.962;2023-11-21T04:24:58;5.20;;;0.70;;
71104;SDS011;58760;48.716;8.962;2023-11-21T04:27:24;2.15;;;0.60;;
71104;SDS011;58760;48.716;8.962;2023-11-21T04:29:49;3.70;;;0.82;;
71104;SDS011;58760;48.716;8.962;2023-11-21T04:32:14;1.00;;;0.43;;
71104;SDS011;58760;48.716;8.962;2023-11-21T04:34:41;2.30;;;0.63;;
71104;SDS011;58760;48.716;8.962;2023-11-21T04:37:06;0.88;;;0.47;;
71104;SDS011;58760;48.716;8.962;2023-11-21T04:39:31;2.30;;;0.40;;
71104;SDS011;58760;48.716;8.962;2023-11-21T04:41:57;6.40;;;0.90;;
71104;SDS011;58760;48.716;8.962;2023-11-21T04:44:22;2.78;;;0.90;;
71104;SDS011;58760;48.716;8.962;2023-11-21T04:46:47;1.10;;;0.50;;
71104;SDS011;58760;48.716;8.962;2023-11-21T04:49:13;1.55;;;0.40;;
71104;SDS011;58760;48.716;8.962;2023-11-21T04:51:39;1.73;;;0.73;;
71104;SDS011;58760;48.716;8.962;2023-11-21T04:54:04;0.55;;;0.40;;
71104;SDS011;58760;48.716;8.962;2023-11-21T04:56:30;2.30;;;0.60;;
71104;SDS011;58760;48.716;8.962;2023-11-21T04:58:56;2.90;;;0.60;;
71104;SDS011;58760;48.716;8.962;2023-11-21T05:01:21;2.22;;;0.60;;
71104;SDS011;58760;48.716;8.962;2023-11-21T05:03:47;2.25;;;0.57;;
71104;SDS011;58760;48.716;8.962;2023-11-21T05:08:39;2.03;;;0.50;;
71104;SDS011;58760;48.716;8.962;2023-11-21T05:11:04;1.67;;;0.70;;
71104;SDS011;58760;48.716;8.962;2023-11-21T05:13:33;3.10;;;0.80;;
71104;SDS011;58760;48.716;8.962;2023-11-21T05:15:59;2.70;;;0.70;;
71104;SDS011;58760;48.716;8.962;2023-11-21T05:18:24;2.33;;;0.68;;
71104;SDS011;58760;48.716;8.962;2023-11-21T05:20:54;5.32;;;0.57;;
71104;SDS011;58760;48.716;8.962;2023-11-21T05:23:20;1.92;;;0.70;;
71104;SDS011;58760;48.716;8.962;2023-11-21T05:25:45;2.33;;;0.70;;
71104;SDS011;58760;48.716;8.962;2023-11-21T05:28:11;2.15;;;0.55;;
71104;SDS011;58760;48.716;8.962;2023-11-21T05:30:37;2.75;;;0.75;;
71104;SDS011;58760;48.716;8.962;2023-11-21T05:33:04;3.33;;;0.70;;
71104;SDS011;58760;48.716;8.962;2023-11-21T05:35:29;2.80;;;0.63;;
71104;SDS011;58760;48.716;8.962;2023-11-21T05:37:56;3.00;;;0.88;;
71104;SDS011;58760;48.716;8.962;2023-11-21T05:40:21;2.78;;;0.70;;
71104;SDS011;58760;48.716;8.962;2023-11-21T05:42:47;2.70;;;0.85;;
71104;SDS011;58760;48.716;8.962;2023-11-21T05:45:13;3.97;;;0.95;;
71104;SDS011;58760;48.716;8.962;2023-11-21T05:47:42;3.40;;;0.73;;
71104;SDS011;58760;48.716;8.962;2023-11-21T05:50:11;1.20;;;0.68;;
71104;SDS011;58760;48.716;8.962;2023-11-21T05:52:39;3.15;;;1.02;;
71104;SDS011;58760;48.716;8.962;2023-11-21T05:55:05;1.08;;;0.70;;
71104;SDS011;58760;48.716;8.962;2023-11-21T05:57:35;1.88;;;0.73;;
71104;SDS011;58760;48.716;8.962;2023-11-21T06:00:23;2.28;;;0.60;;
71104;SDS011;58760;48.716;8.962;2023-11-21T06:02:51;2.33;;;0.90;;
71104;SDS011;58760;48.716;8.962;2023-11-21T06:05:18;2.08;;;0.80;;
71104;SDS011;58760;48.716;8.962;2023-11-21T06:07:45;4.05;;;1.00;;
71104;SDS011;58760;48.716;8.962;2023-11-21T06:10:11;2.10;;;0.73;;
71104;SDS011;58760;48.716;8.962;2023-11-21T06:15:06;1.35;;;0.82;;
71104;SDS011;58760;48.716;8.962;2023-11-21T06:17:37;1.70;;;0.70;;
71104;SDS011;58760;48.716;8.962;2023-11-21T06:20:03;2.38;;;0.80;;
71104;SDS011;58760;48.716;8.962;2023-11-21T06:22:38;3.00;;;0.90;;
71104;SDS011;58760;48.716;8.962;2023-11-21T06:25:04;2.65;;;1.00;;
71104;SDS011;58760;48.716;8.962;2023-11-21T06:27:31;3.83;;;1.27;;
71104;SDS011;58760;48.716;8.962;2023-11-21T06:29:58;1.92;;;0.80;;
71104;SDS011;58760;48.716;8.962;2023-11-21T06:32:23;1.60;;;0.80;;
71104;SDS011;58760;48.716;8.962;2023-11-21T06:34:49;2.88;;;0.75;;
71104;SDS011;58760;48.716;8.962;2023-11-21T06:37:14;2.85;;;0.80;;
71104;SDS011;58760;48.716;8.962;2023-11-21T06:39:42;4.25;;;0.80;;
71104;SDS011;58760;48.716;8.962;2023-11-21T06:42:07;1.80;;;0.60;;
71104;SDS011;58760;48.716;8.962;2023-11-21T06:44:32;2.97;;;0.85;;
71104;SDS011;58760;48.716;8.962;2023-11-21T06:46:58;3.50;;;1.13;;
71104;SDS011;58760;48.716;8.962;2023-11-21T06:49:24;4.15;;;1.15;;
71104;SDS011;58760;48.716;8.962;2023-11-21T06:51:49;5.38;;;1.00;;
71104;SDS011;58760;48.716;8.962;2023-11-21T06:54:15;3.97;;;0.80;;
71104;SDS011;58760;48.716;8.962;2023-11-21T06:56:40;2.78;;;0.88;;
71104;SDS011;58760;48.716;8.962;2023-11-21T06:59:06;4.43;;;1.00;;
71104;SDS011;58760;48.716;8.962;2023-11-21T07:01:31;3.65;;;0.93;;
71104;SDS011;58760;48.716;8.962;2023-11-21T07:04:04;4.25;;;1.10;;
71104;SDS011;58760;48.716;8.962;2023-11-21T07:06:30;4.03;;;1.42;;
71104;SDS011;58760;48.716;8.962;2023-11-21T07:08:55;3.92;;;1.20;;
71104;SDS011;58760;48.716;8.962;2023-11-21T07:11:21;3.80;;;1.27;;
71104;SDS011;58760;48.716;8.962;2023-11-21T07:13:46;2.97;;;1.20;;
71104;SDS011;58760;48.716;8.962;2023-11-21T07:16:11;7.13;;;1.60;;
71104;SDS011;58760;48.716;8.962;2023-11-21T07:18:37;5.38;;;1.30;;
71104;SDS011;58760;48.716;8.962;2023-11-21T07:21:02;5.70;;;1.40;;
71104;SDS011;58760;48.716;8.962;2023-11-21T07:23:28;4.63;;;1.60;;
71104;SDS011;58760;48.716;8.962;2023-11-21T07:25:54;4.07;;;1.33;;
71104;SDS011;58760;48.716;8.962;2023-11-21T07:28:19;5.35;;;1.50;;
71104;SDS011;58760;48.716;8.962;2023-11-21T07:30:44;4.53;;;1.67;;
71104;SDS011;58760;48.716;8.962;2023-11-21T07:33:10;4.00;;;1.40;;
71104;SDS011;58760;48.716;8.962;2023-11-21T07:35:35;3.20;;;1.20;;
71104;SDS011;58760;48.716;8.962;2023-11-21T07:38:01;3.13;;;1.30;;
71104;SDS011;58760;48.716;8.962;2023-11-21T07:40:26;4.78;;;1.23;;
71104;SDS011;58760;48.716;8.962;2023-11-21T07:42:52;3.75;;;1.48;;
71104;SDS011;58760;48.716;8.962;2023-11-21T07:45:18;6.00;;;1.30;;
71104;SDS011;58760;48.716;8.962;2023-11-21T07:47:43;3.97;;;1.30;;
71104;SDS011;58760;48.716;8.962;2023-11-21T07:50:08;6.38;;;1.58;;
71104;SDS011;58760;48.716;8.962;2023-11-21T07:52:34;3.10;;;1.20;;
71104;SDS011;58760;48.716;8.962;2023-11-21T07:54:59;5.45;;;1.08;;
71104;SDS011;58760;48.716;8.962;2023-11-21T07:57:25;4.95;;;1.55;;
71104;SDS011;58760;48.716;8.962;2023-11-21T07:59:51;6.05;;;1.60;;
71104;SDS011;58760;48.716;8.962;2023-11-21T08:02:18;3.03;;;1.20;;
71104;SDS011;58760;48.716;8.962;2023-11-21T08:04:44;4.60;;;1.30;;
71104;SDS011;58760;48.716;8.962;2023-11-21T08:07:09;4.25;;;1.33;;
71104;SDS011;58760;48.716;8.962;2023-11-21T08:09:36;6.25;;;1.27;;
71104;SDS011;58760;48.716;8.962;2023-11-21T08:12:01;3.65;;;1.30;;
71104;SDS011;58760;48.716;8.962;2023-11-21T08:14:27;3.30;;;1.20;;
71104;SDS011;58760;48.716;8.962;2023-11-21T08:16:53;3.05;;;1.00;;
71104;SDS011;58760;48.716;8.962;2023-11-21T08:19:22;3.92;;;1.10;;
71104;SDS011;58760;48.716;8.962;2023-11-21T08:21:50;2.45;;;1.10;;
71104;SDS011;58760;48.716;8.962;2023-11-21T08:24:16;3.45;;;1.10;;
71104;SDS011;58760;48.716;8.962;2023-11-21T08:26:42;4.32;;;1.15;;
71104;SDS011;58760;48.716;8.962;2023-11-21T08:29:08;3.03;;;1.20;;
71104;SDS011;58760;48.716;8.962;2023-11-21T08:31:33;3.53;;;1.13;;
71104;SDS011;58760;48.716;8.962;2023-11-21T08:33:59;4.18;;;1.50;;
71104;SDS011;58760;48.716;8.962;2023-11-21T08:36:27;2.10;;;1.00;;
71104;SDS011;58760;48.716;8.962;2023-11-21T08:38:53;2.58;;;1.20;;
71104;SDS011;58760;48.716;8.962;2023-11-21T08:41:18;2.75;;;1.23;;
71104;SDS011;58760;48.716;8.962;2023-11-21T08:43:47;3.05;;;1.23;;
71104;SDS011;58760;48.716;8.962;2023-11-21T08:46:13;4.70;;;1.20;;
71104;SDS011;58760;48.716;8.962;2023-11-21T08:48:40;4.93;;;1.30;;
71104;SDS011;58760;48.716;8.962;2023-11-21T08:53:31;3.47;;;1.30;;
71104;SDS011;58760;48.716;8.962;2023-11-21T08:55:58;2.20;;;1.05;;
71104;SDS011;58760;48.716;8.962;2023-11-21T08:58:23;3.00;;;1.00;;
71104;SDS011;58760;48.716;8.962;2023-11-21T09:00:49;5.32;;;1.10;;
71104;SDS011;58760;48.716;8.962;2023-11-21T09:03:14;2.55;;;1.00;;
71104;SDS011;58760;48.716;8.962;2023-11-21T09:05:39;3.40;;;1.10;;
71104;SDS011;58760;48.716;8.962;2023-11-21T09:08:05;2.75;;;1.13;;
71104;SDS011;58760;48.716;8.962;2023-11-21T09:10:32;3.25;;;1.10;;
71104;SDS011;58760;48.716;8.962;2023-11-21T09:13:00;3.00;;;1.10;;
71104;SDS011;58760;48.716;8.962;2023-11-21T09:15:26;3.53;;;1.10;;
71104;SDS011;58760;48.716;8.962;2023-11-21T09:17:52;2.78;;;1.15;;
71104;SDS011;58760;48.716;8.962;2023-11-21T09:20:18;3.75;;;1.23;;
71104;SDS011;58760;48.716;8.962;2023-11-21T09:22:47;2.85;;;1.08;;
71104;SDS011;58760;48.716;8.962;2023-11-21T09:25:13;2.53;;;1.15;;
71104;SDS011;58760;48.716;8.962;2023-11-21T09:27:39;2.08;;;1.00;;
71104;SDS011;58760;48.716;8.962;2023-11-21T09:30:04;2.47;;;0.98;;
71104;SDS011;58760;48.716;8.962;2023-11-21T09:32:33;4.78;;;1.40;;
71104;SDS011;58760;48.716;8.962;2023-11-21T09:35:00;6.45;;;1.25;;
71104;SDS011;58760;48.716;8.962;2023-11-21T09:37:27;5.63;;;1.63;;
71104;SDS011;58760;48.716;8.962;2023-11-21T09:39:52;4.75;;;1.52;;
71104;SDS011;58760;48.716;8.962;2023-11-21T09:42:30;3.58;;;1.40;;
71104;SDS011;58760;48.716;8.962;2023-11-21T09:45:14;3.42;;;1.30;;
71104;SDS011;58760;48.716;8.962;2023-11-21T09:47:43;5.43;;;1.20;;
71104;SDS011;58760;48.716;8.962;2023-11-21T09:50:09;7.95;;;1.27;;
71104;SDS011;58760;48.716;8.962;2023-11-21T09:52:38;2.75;;;1.20;;
71104;SDS011;58760;48.716;8.962;2023-11-21T09:55:29;3.90;;;1.27;;
71104;SDS011;58760;48.716;8.962;2023-11-21T09:58:01;3.70;;;1.40;;
71104;SDS011;58760;48.716;8.962;2023-11-21T10:00:27;3.47;;;1.10;;
71104;SDS011;58760;48.716;8.962;2023-11-21T10:02:57;5.68;;;1.50;;
71104;SDS011;58760;48.716;8.962;2023-11-21T10:05:23;4.93;;;1.40;;
71104;SDS011;58760;48.716;8.962;2023-11-21T10:07:49;4.25;;;1.40;;
71104;SDS011;58760;48.716;8.962;2023-11-21T10:10:16;3.30;;;1.20;;
71104;SDS011;58760;48.716;8.962;2023-11-21T10:12:45;4.43;;;1.40;;
71104;SDS011;58760;48.716;8.962;2023-11-21T10:15:18;3.95;;;1.50;;
71104;SDS011;58760;48.716;8.962;2023-11-21T10:17:46;3.38;;;1.50;;
71104;SDS011;58760;48.716;8.962;2023-11-21T10:20:14;5.93;;;1.40;;
71104;SDS011;58760;48.716;8.962;2023-11-21T10:22:40;4.10;;;1.30;;
71104;SDS011;58760;48.716;8.962;2023-11-21T10:25:07;4.97;;;1.80;;
71104;SDS011;58760;48.716;8.962;2023-11-21T10:27:34;6.85;;;1.40;;
71104;SDS011;58760;48.716;8.962;2023-11-21T10:30:01;3.47;;;1.50;;
71104;SDS011;58760;48.716;8.962;2023-11-21T10:32:29;5.85;;;1.70;;
71104;SDS011;58760;48.716;8.962;2023-11-21T10:35:01;4.43;;;1.50;;
71104;SDS011;58760;48.716;8.962;2023-11-21T10:37:31;3.75;;;1.35;;
71104;SDS011;58760;48.716;8.962;2023-11-21T10:39:58;3.53;;;1.40;;
71104;SDS011;58760;48.716;8.962;2023-11-21T10:42:24;4.75;;;1.30;;
71104;SDS011;58760;48.716;8.962;2023-11-21T10:44:49;4.00;;;1.33;;
71104;SDS011;58760;48.716;8.962;2023-11-21T10:47:15;4.75;;;1.90;;
71104;SDS011;58760;48.716;8.962;2023-11-21T10:49:44;2.92;;;1.35;;
71104;SDS011;58760;48.716;8.962;2023-11-21T10:52:12;5.00;;;1.50;;
71104;SDS011;58760;48.716;8.962;2023-11-21T10:54:45;4.53;;;1.40;;
71104;SDS011;58760;48.716;8.962;2023-11-21T10:57:10;3.30;;;1.63;;
71104;SDS011;58760;48.716;8.962;2023-11-21T10:59:40;2.20;;;1.13;;
71104;SDS011;58760;48.716;8.962;2023-11-21T11:02:16;2.25;;;1.25;;
71104;SDS011;58760;48.716;8.962;2023-11-21T11:04:48;3.65;;;1.35;;
71104;SDS011;58760;48.716;8.962;2023-11-21T11:07:13;3.28;;;1.13;;
71104;SDS011;58760;48.716;8.962;2023-11-21T11:09:41;2.10;;;0.98;;
71104;SDS011;58760;48.716;8.962;2023-11-21T11:12:06;1.70;;;0.98;;
71104;SDS011;58760;48.716;8.962;2023-11-21T11:14:34;3.00;;;1.15;;
71104;SDS011;58760;48.716;8.962;2023-11-21T11:17:01;2.38;;;1.08;;
71104;SDS011;58760;48.716;8.962;2023-11-21T11:19:27;1.50;;;0.88;;
71104;SDS011;58760;48.716;8.962;2023-11-21T11:21:57;2.70;;;0.90;;
71104;SDS011;58760;48.716;8.962;2023-11-21T11:24:41;4.20;;;0.95;;
71104;SDS011;58760;48.716;8.962;2023-11-21T11:27:36;3.10;;;0.98;;
71104;SDS011;58760;48.716;8.962;2023-11-21T11:30:35;1.98;;;1.02;;
71104;SDS011;58760;48.716;8.962;2023-11-21T11:33:29;2.33;;;1.00;;
71104;SDS011;58760;48.716;8.962;2023-11-21T11:38:46;3.70;;;1.30;;
71104;SDS011;58760;48.716;8.962;2023-11-21T11:41:15;3.60;;;1.50;;
71104;SDS011;58760;48.716;8.962;2023-11-21T11:43:54;3.42;;;1.38;;
71104;SDS011;58760;48.716;8.962;2023-11-21T11:46:20;2.97;;;1.48;;
71104;SDS011;58760;48.716;8.962;2023-11-21T11:48:48;3.80;;;1.80;;
71104;SDS011;58760;48.716;8.962;2023-11-21T11:51:28;2.85;;;1.40;;
71104;SDS011;58760;48.716;8.962;2023-11-21T11:53:53;2.30;;;1.42;;
71104;SDS011;58760;48.716;8.962;2023-11-21T11:56:23;4.90;;;1.90;;
71104;SDS011;58760;48.716;8.962;2023-11-21T11:58:55;3.58;;;1.80;;
71104;SDS011;58760;48.716;8.962;2023-11-21T12:01:22;3.17;;;1.60;;
71104;SDS011;58760;48.716;8.962;2023-11-21T12:06:42;3.72;;;1.52;;
71104;SDS011;58760;48.716;8.962;2023-11-21T12:09:18;3.25;;;1.30;;
71104;SDS011;58760;48.716;8.962;2023-11-21T12:11:46;3.75;;;1.80;;
71104;SDS011;58760;48.716;8.962;2023-11-21T12:14:13;3.85;;;1.90;;
71104;SDS011;58760;48.716;8.962;2023-11-21T12:16:39;4.60;;;2.10;;
71104;SDS011;58760;48.716;8.962;2023-11-21T12:19:05;5.35;;;2.97;;
71104;SDS011;58760;48.716;8.962;2023-11-21T12:21:30;8.85;;;3.50;;
71104;SDS011;58760;48.716;8.962;2023-11-21T12:23:57;6.82;;;3.55;;
71104;SDS011;58760;48.716;8.962;2023-11-21T12:26:23;6.63;;;3.65;;
71104;SDS011;58760;48.716;8.962;2023-11-21T12:28:55;7.38;;;3.97;;
71104;SDS011;58760;48.716;8.962;2023-11-21T12:33:48;6.90;;;4.05;;
71104;SDS011;58760;48.716;8.962;2023-11-21T12:36:14;7.22;;;3.55;;
71104;SDS011;58760;48.716;8.962;2023-11-21T12:41:07;6.78;;;3.85;;
71104;SDS011;58760;48.716;8.962;2023-11-21T12:43:33;9.13;;;4.03;;
71104;SDS011;58760;48.716;8.962;2023-11-21T12:46:06;6.32;;;3.90;;
71104;SDS011;58760;48.716;8.962;2023-11-21T12:48:38;8.65;;;4.65;;
71104;SDS011;58760;48.716;8.962;2023-11-21T12:51:05;7.40;;;4.60;;
71104;SDS011;58760;48.716;8.962;2023-11-21T12:53:31;7.30;;;4.00;;
71104;SDS011;58760;48.716;8.962;2023-11-21T12:56:02;7.95;;;4.45;;
71104;SDS011;58760;48.716;8.962;2023-11-21T12:58:31;9.27;;;4.93;;
71104;SDS011;58760;48.716;8.962;2023-11-21T13:00:58;8.80;;;5.25;;
71104;SDS011;58760;48.716;8.962;2023-11-21T13:03:24;10.32;;;5.60;;
71104;SDS011;58760;48.716;8.962;2023-11-21T13:05:50;10.10;;;5.90;;
71104;SDS011;58760;48.716;8.962;2023-11-21T13:08:19;8.10;;;5.07;;
71104;SDS011;58760;48.716;8.962;2023-11-21T13:10:48;8.85;;;4.55;;
71104;SDS011;58760;48.716;8.962;2023-11-21T13:13:20;9.02;;;4.18;;
71104;SDS011;58760;48.716;8.962;2023-11-21T13:15:49;6.65;;;3.70;;
71104;SDS011;58760;48.716;8.962;2023-11-21T13:18:16;6.53;;;3.67;;
71104;SDS011;58760;48.716;8.962;2023-11-21T13:20:42;6.35;;;3.30;;
71104;SDS011;58760;48.716;8.962;2023-11-21T13:23:11;6.65;;;4.00;;
71104;SDS011;58760;48.716;8.962;2023-11-21T13:25:37;6.90;;;3.75;;
71104;SDS011;58760;48.716;8.962;2023-11-21T13:28:06;6.85;;;3.45;;
71104;SDS011;58760;48.716;8.962;2023-11-21T13:30:32;8.07;;;4.10;;
71104;SDS011;58760;48.716;8.962;2023-11-21T13:33:02;6.22;;;3.30;;
71104;SDS011;58760;48.716;8.962;2023-11-21T13:35:31;5.65;;;2.90;;
71104;SDS011;58760;48.716;8.962;2023-11-21T13:38:18;5.22;;;2.58;;
71104;SDS011;58760;48.716;8.962;2023-11-21T13:43:21;4.18;;;1.73;;
71104;SDS011;58760;48.716;8.962;2023-11-21T13:45:50;2.55;;;1.38;;
71104;SDS011;58760;48.716;8.962;2023-11-21T13:48:35;2.83;;;1.40;;
71104;SDS011;58760;48.716;8.962;2023-11-21T13:51:07;3.25;;;1.50;;
71104;SDS011;58760;48.716;8.962;2023-11-21T13:53:42;2.47;;;1.25;;
71104;SDS011;58760;48.716;8.962;2023-11-21T13:56:08;2.85;;;1.40;;
71104;SDS011;58760;48.716;8.962;2023-11-21T13:58:33;3.53;;;1.38;;
71104;SDS011;58760;48.716;8.962;2023-11-21T14:01:17;3.50;;;1.58;;
71104;SDS011;58760;48.716;8.962;2023-11-21T14:03:59;4.10;;;1.42;;
71104;SDS011;58760;48.716;8.962;2023-11-21T14:06:34;4.30;;;1.70;;
71104;SDS011;58760;48.716;8.962;2023-11-21T14:09:10;3.65;;;1.63;;
71104;SDS011;58760;48.716;8.962;2023-11-21T14:11:39;4.25;;;1.77;;
71104;SDS011;58760;48.716;8.962;2023-11-21T14:14:04;5.43;;;1.73;;
71104;SDS011;58760;48.716;8.962;2023-11-21T14:16:30;4.47;;;1.80;;
71104;SDS011;58760;48.716;8.962;2023-11-21T14:18:56;4.07;;;1.80;;
71104;SDS011;58760;48.716;8.962;2023-11-21T14:21:26;5.22;;;2.20;;
71104;SDS011;58760;48.716;8.962;2023-11-21T14:23:52;5.63;;;2.58;;
71104;SDS011;58760;48.716;8.962;2023-11-21T14:26:20;5.45;;;2.40;;
71104;SDS011;58760;48.716;8.962;2023-11-21T14:28:45;4.30;;;2.17;;
71104;SDS011;58760;48.716;8.962;2023-11-21T14:31:14;3.50;;;1.77;;
71104;SDS011;58760;48.716;8.962;2023-11-21T14:33:42;4.60;;;2.28;;
71104;SDS011;58760;48.716;8.962;2023-11-21T14:36:08;4.03;;;2.10;;
71104;SDS011;58760;48.716;8.962;2023-11-21T14:38:35;4.00;;;1.90;;
71104;SDS011;58760;48.716;8.962;2023-11-21T14:41:08;6.53;;;2.00;;
71104;SDS011;58760;48.716;8.962;2023-11-21T14:43:36;6.22;;;2.10;;
71104;SDS011;58760;48.716;8.962;2023-11-21T14:46:02;4.38;;;2.00;;
71104;SDS011;58760;48.716;8.962;2023-11-21T14:48:37;6.22;;;2.42;;
71104;SDS011;58760;48.716;8.962;2023-11-21T14:51:08;5.28;;;2.25;;
71104;SDS011;58760;48.716;8.962;2023-11-21T14:53:55;6.35;;;3.08;;
71104;SDS011;58760;48.716;8.962;2023-11-21T14:56:35;5.20;;;2.50;;
71104;SDS011;58760;48.716;8.962;2023-11-21T14:59:02;6.22;;;2.50;;
71104;SDS011;58760;48.716;8.962;2023-11-21T15:01:32;7.32;;;2.40;;
71104;SDS011;58760;48.716;8.962;2023-11-21T15:04:18;6.53;;;2.40;;
71104;SDS011;58760;48.716;8.962;2023-11-21T15:07:02;4.63;;;2.03;;
71104;SDS011;58760;48.716;8.962;2023-11-21T15:09:29;6.50;;;1.98;;
71104;SDS011;58760;48.716;8.962;2023-11-21T15:11:57;3.70;;;1.70;;
71104;SDS011;58760;48.716;8.962;2023-11-21T15:14:39;3.75;;;1.60;;